Time;durP1;ratioP1;P1;durP2;ratioP2;P2;SDS_P1;SDS_P2;PMS_P1;PMS_P2;Temp;Humidity;BMP_temperature;BMP_pressure;BME280_temperature;BME280_humidity;BME280_pressure;Samples;Min_cycle;Max_cycle;Signal;HPM_P1;HPM_P2
2023/06/06 00:00:54;;;;;;;74.13;54.30;;;17.00;74.30;;;;;;4957716;28;90249;-72
2023/06/06 00:03:20;;;;;;;76.55;54.70;;;17.10;75.20;;;;;;4947156;28;90253;-70
2023/06/06 00:05:48;;;;;;;79.22;54.40;;;17.00;74.10;;;;;;4959765;28;89459;-73
2023/06/06 00:08:14;;;;;;;75.57;53.75;;;17.00;74.70;;;;;;4962824;28;90465;-71
2023/06/06 00:10:39;;;;;;;72.10;52.88;;;17.10;74.90;;;;;;4955757;28;89871;-72
2023/06/06 00:13:05;;;;;;;73.78;53.38;;;17.00;75.30;;;;;;4962427;28;91912;-72
2023/06/06 00:15:31;;;;;;;74.82;54.13;;;17.00;75.00;;;;;;4955546;28;89631;-73
2023/06/06 00:17:59;;;;;;;74.25;54.17;;;17.00;74.80;;;;;;4945939;28;89618;-72
2023/06/06 00:20:25;;;;;;;73.57;54.10;;;17.00;74.30;;;;;;4932299;28;89607;-72
2023/06/06 00:22:53;;;;;;;73.32;53.80;;;16.90;75.10;;;;;;4953606;28;90724;-73
2023/06/06 00:25:19;;;;;;;74.03;53.83;;;16.90;74.60;;;;;;4956083;28;91022;-72
2023/06/06 00:27:44;;;;;;;75.90;54.78;;;16.90;75.30;;;;;;4946569;28;90575;-72
2023/06/06 00:30:11;;;;;;;74.70;54.08;;;16.90;74.90;;;;;;4950060;28;89570;-69
2023/06/06 00:32:36;;;;;;;75.80;54.40;;;16.90;74.60;;;;;;4936843;28;91484;-72
2023/06/06 00:35:02;;;;;;;75.63;54.40;;;16.90;74.70;;;;;;4953677;28;91939;-72
2023/06/06 00:37:28;;;;;;;74.22;54.10;;;16.90;75.30;;;;;;4956823;28;90162;-73
2023/06/06 00:39:54;;;;;;;76.88;54.72;;;16.80;75.30;;;;;;4957381;28;89603;-72
2023/06/06 00:42:19;;;;;;;76.53;55.45;;;16.90;75.30;;;;;;4950687;28;89836;-72
2023/06/06 00:44:45;;;;;;;70.25;52.83;;;16.80;75.30;;;;;;4953527;28;91313;-73
2023/06/06 00:47:12;;;;;;;75.28;54.30;;;16.80;76.00;;;;;;4959315;28;90919;-73
2023/06/06 00:49:38;;;;;;;73.28;53.88;;;16.80;75.60;;;;;;4946232;28;90114;-72
2023/06/06 00:52:04;;;;;;;70.95;52.60;;;16.70;74.60;;;;;;4960239;28;89764;-73
2023/06/06 00:54:32;;;;;;;72.65;53.90;;;16.80;76.30;;;;;;4952540;28;89766;-70
2023/06/06 00:56:57;;;;;;;71.95;52.72;;;16.80;76.80;;;;;;4956716;28;90449;-73
2023/06/06 00:59:24;;;;;;;73.57;54.15;;;16.80;76.20;;;;;;4957740;28;89579;-72
2023/06/06 01:01:51;;;;;;;76.65;55.50;;;16.80;76.10;;;;;;4940387;28;89654;-71
2023/06/06 01:04:17;;;;;;;75.72;55.35;;;16.70;75.30;;;;;;4953862;28;89873;-73
2023/06/06 01:06:43;;;;;;;74.20;54.22;;;16.80;75.70;;;;;;4939608;28;90823;-71
2023/06/06 01:09:11;;;;;;;77.85;55.13;;;16.70;76.00;;;;;;4958538;28;89750;-72
2023/06/06 01:12:08;;;;;;;73.60;53.78;;;16.80;75.70;;;;;;4946904;28;93288;-69
2023/06/06 01:15:11;;;;;;;75.15;55.03;;;16.70;74.90;;;;;;4950232;28;89897;-72
2023/06/06 01:17:38;;;;;;;76.63;54.63;;;16.60;76.00;;;;;;4954658;28;90316;-73
2023/06/06 01:20:09;;;;;;;73.65;55.03;;;16.70;76.20;;;;;;4959948;28;90138;-72
2023/06/06 01:22:37;;;;;;;71.95;53.58;;;16.60;75.70;;;;;;4948335;28;89661;-72
2023/06/06 01:25:04;;;;;;;76.70;55.85;;;16.70;76.80;;;;;;4958701;28;90159;-72
2023/06/06 01:27:33;;;;;;;74.60;54.78;;;16.60;75.40;;;;;;4959277;28;90410;-73
2023/06/06 01:30:00;;;;;;;74.88;54.58;;;16.70;75.80;;;;;;4958150;28;89127;-71
2023/06/06 01:32:45;;;;;;;75.90;55.30;;;16.60;76.40;;;;;;4953966;28;90476;-72
2023/06/06 01:35:23;;;;;;;75.25;55.13;;;16.60;76.30;;;;;;4955783;28;90403;-73
2023/06/06 01:38:10;;;;;;;76.18;54.70;;;16.60;76.70;;;;;;4956992;28;90777;-72
2023/06/06 01:40:37;;;;;;;74.80;55.30;;;16.60;76.50;;;;;;4952569;28;89991;-72
2023/06/06 01:43:06;;;;;;;76.07;54.70;;;16.50;76.50;;;;;;4961232;28;90072;-72
2023/06/06 01:45:33;;;;;;;75.95;55.42;;;16.50;76.80;;;;;;4957396;28;89894;-71
2023/06/06 01:47:59;;;;;;;72.05;53.50;;;16.60;76.30;;;;;;4946038;28;90612;-71
2023/06/06 01:50:25;;;;;;;75.43;54.58;;;16.60;76.80;;;;;;4951200;28;89535;-71
2023/06/06 01:52:55;;;;;;;75.05;54.65;;;16.60;77.00;;;;;;4957122;28;90714;-73
2023/06/06 01:55:21;;;;;;;71.78;52.05;;;16.50;76.20;;;;;;4953374;28;93396;-73
2023/06/06 01:57:47;;;;;;;75.13;55.63;;;16.50;77.60;;;;;;4947513;28;90457;-72
2023/06/06 02:00:13;;;;;;;75.85;55.40;;;16.50;76.30;;;;;;4948415;28;89877;-72
2023/06/06 02:02:39;;;;;;;78.45;55.30;;;16.50;76.20;;;;;;4954194;28;95232;-72
2023/06/06 02:05:05;;;;;;;74.43;55.00;;;16.40;75.60;;;;;;4950483;28;90874;-72
2023/06/06 02:07:34;;;;;;;76.80;55.15;;;16.40;76.80;;;;;;4957028;28;89695;-72
2023/06/06 02:10:00;;;;;;;76.35;56.40;;;16.40;76.50;;;;;;4955653;28;89540;-69
2023/06/06 02:12:26;;;;;;;75.55;55.38;;;16.50;76.60;;;;;;4953784;28;90273;-72
2023/06/06 02:14:54;;;;;;;75.40;55.15;;;16.40;76.40;;;;;;4952006;28;90094;-73
2023/06/06 02:17:20;;;;;;;76.50;55.08;;;16.40;76.90;;;;;;4949446;28;90075;-72
2023/06/06 02:19:46;;;;;;;72.72;54.28;;;16.40;76.00;;;;;;4956974;28;90705;-73
2023/06/06 02:22:12;;;;;;;77.43;56.53;;;16.30;77.40;;;;;;4946910;28;89594;-70
2023/06/06 02:24:38;;;;;;;72.38;53.45;;;16.40;76.70;;;;;;4956794;28;90409;-70
2023/06/06 02:27:09;;;;;;;76.43;55.15;;;16.40;77.70;;;;;;4957147;28;90482;-72
2023/06/06 02:29:35;;;;;;;76.80;56.05;;;16.40;76.50;;;;;;4950691;28;90339;-72
2023/06/06 02:32:01;;;;;;;78.68;56.25;;;16.40;76.50;;;;;;4949604;28;90841;-72
2023/06/06 02:34:27;;;;;;;77.80;55.97;;;16.40;76.30;;;;;;4947335;28;90057;-72
2023/06/06 02:36:53;;;;;;;73.53;54.63;;;16.30;77.10;;;;;;4949201;28;89664;-70
2023/06/06 02:39:20;;;;;;;76.70;56.05;;;16.30;77.30;;;;;;4949226;28;90082;-72
2023/06/06 02:41:46;;;;;;;78.20;57.03;;;16.40;76.20;;;;;;4952523;28;89602;-72
2023/06/06 02:44:11;;;;;;;76.47;55.58;;;16.30;76.60;;;;;;4950353;28;89712;-69
2023/06/06 02:46:37;;;;;;;75.78;56.05;;;16.30;76.30;;;;;;4948780;28;91258;-71
2023/06/06 02:49:03;;;;;;;78.93;57.05;;;16.30;76.70;;;;;;4947457;28;89553;-71
2023/06/06 02:51:28;;;;;;;73.35;53.80;;;16.30;76.50;;;;;;4954166;28;91610;-72
2023/06/06 02:53:54;;;;;;;77.30;55.63;;;16.30;78.00;;;;;;4952012;28;90744;-70
2023/06/06 02:56:20;;;;;;;73.70;54.67;;;16.30;77.30;;;;;;4948571;28;90203;-71
2023/06/06 02:58:46;;;;;;;72.07;52.90;;;16.30;77.60;;;;;;4948430;28;90196;-72
2023/06/06 03:01:14;;;;;;;75.45;55.22;;;16.30;78.00;;;;;;4954918;28;90131;-72
2023/06/06 03:03:41;;;;;;;81.43;56.85;;;16.30;77.70;;;;;;4944541;28;89851;-73
2023/06/06 03:06:06;;;;;;;74.00;53.88;;;16.30;76.70;;;;;;4960054;28;89566;-72
2023/06/06 03:08:33;;;;;;;72.20;53.35;;;16.30;78.10;;;;;;4952591;28;89250;-70
2023/06/06 03:10:59;;;;;;;75.75;54.90;;;16.20;77.90;;;;;;4953784;28;90919;-73
2023/06/06 03:13:24;;;;;;;73.82;54.53;;;16.30;76.90;;;;;;4954633;28;91280;-71
2023/06/06 03:15:50;;;;;;;77.65;55.55;;;16.20;78.00;;;;;;4951717;28;92393;-70
2023/06/06 03:18:17;;;;;;;76.70;55.72;;;16.20;78.10;;;;;;4952537;28;89754;-75
2023/06/06 03:20:48;;;;;;;77.55;56.72;;;16.20;77.60;;;;;;4948299;28;89612;-72
2023/06/06 03:23:14;;;;;;;75.88;56.08;;;16.20;76.50;;;;;;4951824;28;91143;-73
2023/06/06 03:25:43;;;;;;;74.57;55.03;;;16.20;77.40;;;;;;4957919;28;94880;-72
2023/06/06 03:28:10;;;;;;;77.63;57.08;;;16.20;77.30;;;;;;4953704;28;91044;-71
2023/06/06 03:30:36;;;;;;;73.40;53.85;;;16.20;77.10;;;;;;4949630;28;89861;-73
2023/06/06 03:33:03;;;;;;;72.43;54.28;;;16.10;78.00;;;;;;4955001;28;89339;-74
2023/06/06 03:35:32;;;;;;;73.70;54.10;;;16.20;78.10;;;;;;4948390;28;90329;-73
2023/06/06 03:37:58;;;;;;;71.80;53.10;;;16.20;77.20;;;;;;4950221;28;89901;-72
2023/06/06 03:40:24;;;;;;;70.10;52.88;;;16.10;78.30;;;;;;4947506;28;95521;-73
2023/06/06 03:42:50;;;;;;;76.30;55.85;;;16.20;77.70;;;;;;4956220;28;90736;-72
2023/06/06 03:45:20;;;;;;;74.13;54.30;;;16.20;77.50;;;;;;4954416;28;91395;-71
2023/06/06 03:47:46;;;;;;;71.45;52.90;;;16.20;78.20;;;;;;4954069;28;89926;-74
2023/06/06 03:50:12;;;;;;;72.97;54.15;;;16.20;77.70;;;;;;4955554;28;90815;-71
2023/06/06 03:52:41;;;;;;;76.25;56.30;;;16.10;78.00;;;;;;4957011;28;91218;-72
2023/06/06 03:55:07;;;;;;;74.40;53.47;;;16.10;77.40;;;;;;4952275;28;89952;-72
2023/06/06 03:57:34;;;;;;;73.47;54.17;;;16.10;78.50;;;;;;4958709;28;88846;-70
2023/06/06 04:00:00;;;;;;;73.63;54.42;;;16.10;77.30;;;;;;4952004;28;89853;-70
2023/06/06 04:02:27;;;;;;;71.38;52.83;;;16.10;77.90;;;;;;4939138;28;92393;-72
2023/06/06 04:04:54;;;;;;;75.47;55.72;;;16.10;78.50;;;;;;4957187;28;91350;-71
2023/06/06 04:07:19;;;;;;;71.13;52.40;;;16.10;78.00;;;;;;4954979;28;90017;-72
2023/06/06 04:09:45;;;;;;;75.05;55.78;;;16.10;78.70;;;;;;4955483;28;90323;-72
2023/06/06 04:12:11;;;;;;;76.47;56.28;;;16.10;77.20;;;;;;4946956;28;95008;-73
2023/06/06 04:14:37;;;;;;;75.38;54.83;;;16.10;77.30;;;;;;4948000;28;90680;-71
2023/06/06 04:17:03;;;;;;;76.05;56.00;;;16.10;77.60;;;;;;4950334;28;91281;-73
2023/06/06 04:19:28;;;;;;;76.13;55.80;;;16.10;77.10;;;;;;4954046;28;90032;-71
2023/06/06 04:21:58;;;;;;;74.38;54.58;;;16.10;76.50;;;;;;4953121;28;90211;-72
2023/06/06 04:24:24;;;;;;;74.35;55.55;;;16.20;77.90;;;;;;4955039;28;89803;-71
2023/06/06 04:26:49;;;;;;;73.45;54.70;;;16.20;77.20;;;;;;4954302;28;90072;-70
2023/06/06 04:29:15;;;;;;;74.15;54.08;;;16.20;77.30;;;;;;4955395;28;92169;-72
2023/06/06 04:31:46;;;;;;;75.50;55.67;;;16.20;78.00;;;;;;4955090;28;91065;-72
2023/06/06 04:34:12;;;;;;;74.80;55.70;;;16.20;76.60;;;;;;4955837;28;89821;-72
2023/06/06 04:36:38;;;;;;;74.05;53.60;;;16.20;76.60;;;;;;4958348;28;89497;-71
2023/06/06 04:39:08;;;;;;;77.70;55.63;;;16.20;77.00;;;;;;4940785;28;90279;-74
2023/06/06 04:41:34;;;;;;;71.60;53.77;;;16.20;76.70;;;;;;4961067;28;90610;-72
2023/06/06 04:44:04;;;;;;;71.30;53.35;;;16.20;76.60;;;;;;4947629;28;89679;-76
2023/06/06 04:46:30;;;;;;;74.15;53.80;;;16.20;77.50;;;;;;4959270;28;88745;-75
2023/06/06 04:48:59;;;;;;;73.07;54.47;;;16.20;77.10;;;;;;4941812;28;90503;-72
2023/06/06 04:51:29;;;;;;;75.47;54.00;;;16.30;76.50;;;;;;4937336;28;92572;-72
2023/06/06 04:54:06;;;;;;;75.73;55.03;;;16.30;75.90;;;;;;4950176;28;91067;-74
2023/06/06 04:56:32;;;;;;;81.00;55.20;;;16.30;75.90;;;;;;4957545;28;90391;-77
2023/06/06 04:59:09;;;;;;;74.63;53.45;;;16.30;76.20;;;;;;4958386;28;90220;-72
2023/06/06 05:01:36;;;;;;;73.35;54.58;;;16.30;78.30;;;;;;4956801;28;89586;-75
2023/06/06 05:04:05;;;;;;;72.47;53.63;;;16.40;75.50;;;;;;4958602;28;89164;-75
2023/06/06 05:06:31;;;;;;;76.80;54.45;;;16.40;76.10;;;;;;4940834;28;90263;-71
2023/06/06 05:09:03;;;;;;;75.18;54.33;;;16.40;75.50;;;;;;4951472;28;89781;-74
2023/06/06 05:11:29;;;;;;;74.18;55.08;;;16.40;75.90;;;;;;4951968;28;89734;-74
2023/06/06 05:13:54;;;;;;;72.88;53.47;;;16.40;76.20;;;;;;4951908;28;90234;-73
2023/06/06 05:16:21;;;;;;;75.20;54.30;;;16.50;76.80;;;;;;4958710;28;92097;-74
2023/06/06 05:18:46;;;;;;;72.55;53.95;;;16.50;77.50;;;;;;4963738;28;90668;-73
2023/06/06 05:21:13;;;;;;;79.70;52.75;;;16.50;76.30;;;;;;4943087;28;92205;-72
2023/06/06 05:23:39;;;;;;;73.28;53.53;;;16.50;76.40;;;;;;4959330;28;89773;-72
2023/06/06 05:26:05;;;;;;;73.03;53.72;;;16.50;76.70;;;;;;4944444;28;89303;-71
2023/06/06 05:28:30;;;;;;;72.30;53.97;;;16.50;75.50;;;;;;4960588;28;90140;-75
2023/06/06 05:30:56;;;;;;;75.15;53.38;;;16.50;75.80;;;;;;4956991;28;90052;-70
2023/06/06 05:33:25;;;;;;;72.70;52.78;;;16.60;76.60;;;;;;4951539;28;89308;-70
2023/06/06 05:35:55;;;;;;;76.57;54.78;;;16.70;78.40;;;;;;4939067;28;89223;-69
2023/06/06 05:38:21;;;;;;;75.80;55.22;;;16.60;75.60;;;;;;4954231;28;89524;-71
2023/06/06 05:40:46;;;;;;;81.38;57.05;;;16.60;73.30;;;;;;4955345;28;91567;-71
2023/06/06 05:43:14;;;;;;;81.45;58.25;;;16.60;75.30;;;;;;4955679;28;90498;-72
2023/06/06 05:45:40;;;;;;;85.95;58.88;;;16.60;75.60;;;;;;4950982;28;89689;-73
2023/06/06 05:48:06;;;;;;;87.35;59.67;;;16.60;74.30;;;;;;4930885;28;90428;-72
2023/06/06 05:50:32;;;;;;;87.07;58.72;;;16.60;74.40;;;;;;4951740;28;90146;-72
2023/06/06 05:52:58;;;;;;;96.57;60.78;;;16.60;74.80;;;;;;4956255;28;89569;-72
2023/06/06 05:55:27;;;;;;;89.78;59.38;;;16.60;75.60;;;;;;4941453;28;89901;-71
2023/06/06 05:57:53;;;;;;;83.80;58.10;;;16.80;75.20;;;;;;4955117;28;89970;-72
2023/06/06 06:00:19;;;;;;;98.25;59.22;;;16.80;74.40;;;;;;4942055;28;89090;-73
2023/06/06 06:02:45;;;;;;;90.43;59.72;;;16.90;74.90;;;;;;4951315;28;91765;-73
2023/06/06 06:05:10;;;;;;;88.03;58.78;;;16.90;74.80;;;;;;4954794;28;89380;-72
2023/06/06 06:07:38;;;;;;;84.63;57.22;;;16.90;73.90;;;;;;4951311;28;90414;-73
2023/06/06 06:10:04;;;;;;;88.55;58.53;;;17.00;74.20;;;;;;4953920;28;89529;-70
2023/06/06 06:12:29;;;;;;;81.85;57.42;;;17.00;74.40;;;;;;4956963;28;89689;-72
2023/06/06 06:14:55;;;;;;;89.90;58.17;;;17.00;72.90;;;;;;4952407;28;89702;-73
2023/06/06 06:17:22;;;;;;;81.63;56.03;;;17.10;74.10;;;;;;4952772;28;89479;-73
2023/06/06 06:19:48;;;;;;;90.88;57.17;;;17.10;72.30;;;;;;4957276;28;90274;-70
2023/06/06 06:22:13;;;;;;;83.32;55.60;;;17.10;73.40;;;;;;4957926;28;89918;-73
2023/06/06 06:24:39;;;;;;;82.10;56.22;;;17.10;73.30;;;;;;4950578;28;88926;-72
2023/06/06 06:27:05;;;;;;;84.35;56.50;;;17.20;73.00;;;;;;4955998;28;90017;-73
2023/06/06 06:29:31;;;;;;;85.95;56.35;;;17.20;73.00;;;;;;4953390;28;90227;-73
2023/06/06 06:31:56;;;;;;;82.45;55.97;;;17.30;73.20;;;;;;4952978;28;90938;-73
2023/06/06 06:34:22;;;;;;;83.18;56.40;;;17.30;72.80;;;;;;4950957;28;89864;-72
2023/06/06 06:36:48;;;;;;;85.57;56.33;;;17.30;72.60;;;;;;4954032;28;90210;-70
2023/06/06 06:39:18;;;;;;;83.35;56.30;;;17.40;72.50;;;;;;4953972;28;89955;-73
2023/06/06 06:41:45;;;;;;;78.50;55.90;;;17.40;72.90;;;;;;4950462;28;89519;-73
2023/06/06 06:44:11;;;;;;;83.97;55.63;;;17.40;72.10;;;;;;4955280;28;90560;-70
2023/06/06 06:46:37;;;;;;;83.95;55.65;;;17.50;72.50;;;;;;4952376;28;90326;-72
2023/06/06 06:49:02;;;;;;;82.60;56.13;;;17.50;71.70;;;;;;4957760;28;89163;-73
2023/06/06 06:51:29;;;;;;;81.35;55.38;;;17.60;72.10;;;;;;4943219;28;89433;-73
2023/06/06 06:53:57;;;;;;;81.43;55.22;;;17.60;71.80;;;;;;4938395;28;89488;-72
2023/06/06 06:56:24;;;;;;;78.93;54.75;;;17.60;71.70;;;;;;4941149;28;92499;-73
2023/06/06 06:58:50;;;;;;;78.97;55.05;;;17.60;71.50;;;;;;4958259;28;91323;-72
2023/06/06 07:01:19;;;;;;;79.55;54.45;;;17.60;71.50;;;;;;4957450;28;89493;-70
2023/06/06 07:03:48;;;;;;;79.68;54.95;;;17.70;71.40;;;;;;4958792;28;90917;-72
2023/06/06 07:06:14;;;;;;;77.20;54.63;;;17.70;70.90;;;;;;4943131;28;90981;-73
2023/06/06 07:08:44;;;;;;;77.07;54.75;;;17.80;70.90;;;;;;4955501;28;89393;-72
2023/06/06 07:11:10;;;;;;;79.75;54.67;;;17.80;70.30;;;;;;4957003;28;90627;-73
2023/06/06 07:13:36;;;;;;;78.35;54.55;;;17.80;70.60;;;;;;4953530;28;89143;-72
2023/06/06 07:16:02;;;;;;;77.97;54.13;;;17.90;70.60;;;;;;4951709;28;90961;-74
2023/06/06 07:18:28;;;;;;;74.95;54.38;;;17.90;70.40;;;;;;4957315;28;89974;-72
2023/06/06 07:20:54;;;;;;;77.88;54.50;;;17.90;70.10;;;;;;4956884;28;90640;-73
2023/06/06 07:23:19;;;;;;;78.38;54.13;;;17.90;70.40;;;;;;4956334;28;89595;-73
2023/06/06 07:25:45;;;;;;;79.63;54.58;;;18.00;70.10;;;;;;4954864;28;89505;-73
2023/06/06 07:28:13;;;;;;;77.10;53.72;;;18.10;69.70;;;;;;4958315;28;89594;-71
2023/06/06 07:30:38;;;;;;;74.60;53.60;;;18.10;69.50;;;;;;4954071;28;89455;-72
2023/06/06 07:33:04;;;;;;;75.97;53.90;;;18.20;69.40;;;;;;4955105;28;89614;-73
2023/06/06 07:35:32;;;;;;;77.60;53.83;;;18.20;69.20;;;;;;4955317;28;89765;-71
2023/06/06 07:37:59;;;;;;;76.65;53.67;;;18.20;69.10;;;;;;4959949;28;89226;-71
2023/06/06 07:40:25;;;;;;;78.30;53.70;;;18.20;69.00;;;;;;4957217;28;89694;-72
2023/06/06 07:42:51;;;;;;;75.65;54.15;;;18.30;68.90;;;;;;4956792;28;89898;-72
2023/06/06 07:45:17;;;;;;;75.85;53.55;;;18.30;68.70;;;;;;4958695;28;90792;-74
2023/06/06 07:47:43;;;;;;;76.72;53.63;;;18.30;68.70;;;;;;4957409;28;90306;-71
2023/06/06 07:50:09;;;;;;;76.00;53.70;;;18.40;68.50;;;;;;4962374;28;89584;-73
2023/06/06 07:52:35;;;;;;;75.53;53.88;;;18.40;68.40;;;;;;4957082;28;89574;-72
2023/06/06 07:55:01;;;;;;;77.53;53.78;;;18.40;68.10;;;;;;4955293;28;89926;-72
2023/06/06 07:57:27;;;;;;;74.72;53.42;;;18.40;67.90;;;;;;4941505;28;90244;-72
2023/06/06 07:59:56;;;;;;;75.15;53.50;;;18.50;68.00;;;;;;4949272;28;90037;-72
2023/06/06 08:02:22;;;;;;;74.07;53.38;;;18.50;68.10;;;;;;4958057;28;89648;-72
2023/06/06 08:04:48;;;;;;;77.25;53.50;;;18.50;67.90;;;;;;4956585;28;89870;-71
2023/06/06 08:07:14;;;;;;;77.25;53.22;;;18.60;67.70;;;;;;4952255;28;89460;-73
2023/06/06 08:09:41;;;;;;;75.57;53.60;;;18.60;67.60;;;;;;4954958;28;91112;-71
2023/06/06 08:12:07;;;;;;;75.22;53.35;;;18.50;67.60;;;;;;4955717;28;90157;-72
2023/06/06 08:14:35;;;;;;;75.68;53.67;;;18.60;67.40;;;;;;4958016;28;90129;-72
2023/06/06 08:17:04;;;;;;;74.43;53.42;;;18.60;67.30;;;;;;4953826;28;89629;-74
2023/06/06 08:19:30;;;;;;;76.38;53.08;;;18.70;67.10;;;;;;4950591;28;89421;-71
2023/06/06 08:21:55;;;;;;;77.43;53.40;;;18.70;67.10;;;;;;4958338;28;89808;-74
2023/06/06 08:24:21;;;;;;;75.07;53.03;;;18.70;67.10;;;;;;4953795;28;90093;-70
2023/06/06 08:26:47;;;;;;;76.78;53.22;;;18.70;67.10;;;;;;4956401;28;88901;-71
2023/06/06 08:29:14;;;;;;;74.10;53.10;;;18.80;67.20;;;;;;4961193;28;90036;-72
2023/06/06 08:31:40;;;;;;;75.35;52.97;;;18.80;67.00;;;;;;4948652;28;89593;-71
2023/06/06 08:34:06;;;;;;;74.70;53.38;;;18.80;66.90;;;;;;4953734;28;90451;-72
2023/06/06 08:36:32;;;;;;;75.43;53.20;;;18.80;66.90;;;;;;4953029;28;90533;-73
2023/06/06 08:38:58;;;;;;;74.93;53.20;;;18.90;66.80;;;;;;4955143;28;89563;-72
2023/06/06 08:41:26;;;;;;;75.35;54.00;;;18.90;66.70;;;;;;4937927;28;89604;-70
2023/06/06 08:43:56;;;;;;;74.57;53.50;;;18.90;66.60;;;;;;4948833;28;91309;-72
2023/06/06 08:46:24;;;;;;;74.63;53.20;;;18.90;66.80;;;;;;4958507;28;90094;-72
2023/06/06 08:48:51;;;;;;;74.38;53.03;;;18.90;66.70;;;;;;4955045;28;90138;-71
2023/06/06 08:51:17;;;;;;;74.63;53.28;;;19.00;66.40;;;;;;4956358;28;89418;-72
2023/06/06 08:53:44;;;;;;;75.18;53.47;;;19.00;66.40;;;;;;4955139;28;89957;-70
2023/06/06 08:56:11;;;;;;;75.75;53.40;;;19.10;67.20;;;;;;4956261;28;89667;-72
2023/06/06 08:58:37;;;;;;;74.53;53.42;;;19.10;66.40;;;;;;4956219;28;90483;-71
2023/06/06 09:01:05;;;;;;;74.60;52.97;;;19.10;66.30;;;;;;4939380;28;90063;-73
2023/06/06 09:03:32;;;;;;;74.40;53.15;;;19.20;66.20;;;;;;4951879;28;90761;-71
2023/06/06 09:06:03;;;;;;;75.50;53.60;;;19.20;66.00;;;;;;4955998;28;89396;-71
2023/06/06 09:08:29;;;;;;;76.15;53.60;;;19.20;66.00;;;;;;4962925;28;89465;-72
2023/06/06 09:10:55;;;;;;;76.45;53.42;;;19.20;66.10;;;;;;4957761;28;89744;-73
2023/06/06 09:13:20;;;;;;;74.68;53.30;;;19.20;66.20;;;;;;4959018;28;89485;-73
2023/06/06 09:15:47;;;;;;;75.60;53.78;;;19.30;66.20;;;;;;4953041;28;88464;-73
2023/06/06 09:18:15;;;;;;;73.38;53.17;;;19.30;66.10;;;;;;4955266;28;89684;-72
2023/06/06 09:20:42;;;;;;;76.60;54.50;;;19.30;66.20;;;;;;4955819;28;89578;-73
2023/06/06 09:23:13;;;;;;;74.60;53.42;;;19.30;66.30;;;;;;4953459;28;91056;-70
2023/06/06 09:25:44;;;;;;;76.15;54.28;;;19.30;66.40;;;;;;4954154;28;90811;-70
2023/06/06 09:28:09;;;;;;;77.47;53.85;;;19.30;66.30;;;;;;4958098;28;89543;-72
2023/06/06 09:30:35;;;;;;;74.78;53.80;;;19.30;66.40;;;;;;4941344;28;89764;-73
2023/06/06 09:33:02;;;;;;;74.80;53.25;;;19.30;66.50;;;;;;4956334;28;90397;-73
2023/06/06 09:35:36;;;;;;;75.78;53.95;;;19.40;66.40;;;;;;4960315;28;89688;-72
2023/06/06 09:38:06;;;;;;;74.53;53.15;;;19.40;66.20;;;;;;4955736;28;89471;-73
2023/06/06 09:40:33;;;;;;;74.43;53.28;;;19.50;66.50;;;;;;4957173;28;89096;-73
2023/06/06 09:42:59;;;;;;;72.65;52.97;;;19.50;66.00;;;;;;4952719;28;89417;-71
2023/06/06 09:45:24;;;;;;;75.78;53.55;;;19.50;66.00;;;;;;4957886;28;90922;-70
2023/06/06 09:47:50;;;;;;;73.05;52.92;;;19.50;66.10;;;;;;4958940;28;90304;-73
2023/06/06 09:50:20;;;;;;;74.75;53.55;;;19.50;66.10;;;;;;4961957;28;89627;-74
2023/06/06 09:52:53;;;;;;;74.07;53.53;;;19.60;66.10;;;;;;4944782;28;91620;-73
2023/06/06 09:55:21;;;;;;;75.00;53.45;;;19.60;66.20;;;;;;4960852;28;90681;-72
2023/06/06 09:57:49;;;;;;;76.28;53.38;;;19.60;66.10;;;;;;4960823;28;90759;-72
2023/06/06 10:00:15;;;;;;;75.13;53.53;;;19.60;66.20;;;;;;4940294;28;90163;-72
2023/06/06 10:02:45;;;;;;;75.80;53.25;;;19.70;66.10;;;;;;4957337;28;89224;-73
2023/06/06 10:05:12;;;;;;;76.18;53.83;;;19.70;66.20;;;;;;4957220;28;88755;-71
2023/06/06 10:07:44;;;;;;;77.18;54.00;;;19.70;66.00;;;;;;4959205;28;89424;-72
2023/06/06 10:10:15;;;;;;;75.75;53.90;;;19.70;66.00;;;;;;4957344;28;89763;-72
2023/06/06 10:12:43;;;;;;;74.93;53.38;;;19.80;66.10;;;;;;4961600;28;91616;-72
2023/06/06 10:15:10;;;;;;;74.75;53.20;;;19.90;66.10;;;;;;4957627;28;90124;-71
2023/06/06 10:17:39;;;;;;;74.60;53.20;;;19.90;65.90;;;;;;4955783;28;89717;-72
2023/06/06 10:20:07;;;;;;;73.53;53.13;;;19.90;65.80;;;;;;4961556;28;89585;-73
2023/06/06 10:22:36;;;;;;;74.75;53.63;;;20.00;65.60;;;;;;4961036;28;89536;-72
2023/06/06 10:25:12;;;;;;;75.97;53.40;;;20.00;65.60;;;;;;4961317;28;89567;-73
2023/06/06 10:28:00;;;;;;;76.13;53.75;;;20.00;65.60;;;;;;4959954;28;89421;-73
2023/06/06 10:30:49;;;;;;;73.75;52.97;;;20.10;65.30;;;;;;4958504;28;88986;-72
2023/06/06 10:33:27;;;;;;;75.68;53.63;;;20.10;65.30;;;;;;4957134;28;89760;-72
2023/06/06 10:35:57;;;;;;;75.72;53.50;;;20.20;65.20;;;;;;4957291;28;89871;-73
2023/06/06 10:38:22;;;;;;;76.05;53.28;;;20.20;65.20;;;;;;4959235;28;90338;-72
2023/06/06 10:40:52;;;;;;;75.43;53.40;;;20.20;65.00;;;;;;4955770;28;89905;-71
2023/06/06 10:43:37;;;;;;;74.97;53.63;;;20.30;65.10;;;;;;4959213;28;89411;-72
2023/06/06 10:46:03;;;;;;;74.93;53.50;;;20.30;65.00;;;;;;4956023;28;90516;-71
2023/06/06 10:48:38;;;;;;;73.55;53.25;;;20.30;64.80;;;;;;4959547;28;89910;-72
2023/06/06 10:51:05;;;;;;;75.32;53.63;;;20.40;64.60;;;;;;4959562;28;90437;-73
2023/06/06 10:53:31;;;;;;;74.70;53.75;;;20.40;64.70;;;;;;4959409;28;90145;-73
2023/06/06 10:55:57;;;;;;;75.05;53.88;;;20.50;64.70;;;;;;4957104;28;88806;-72
2023/06/06 10:58:33;;;;;;;78.13;53.78;;;20.50;64.50;;;;;;4940696;28;89491;-72
2023/06/06 11:01:04;;;;;;;75.03;53.35;;;20.60;64.40;;;;;;4954790;28;89866;-72
2023/06/06 11:03:37;;;;;;;75.40;53.63;;;20.60;64.40;;;;;;4956724;28;90929;-73
2023/06/06 11:06:08;;;;;;;75.43;54.03;;;20.60;64.50;;;;;;4956218;28;90701;-70
2023/06/06 11:08:36;;;;;;;74.57;53.55;;;20.70;64.20;;;;;;4959312;28;89860;-73
2023/06/06 11:11:32;;;;;;;75.05;53.63;;;20.70;63.90;;;;;;4960541;28;89712;-71
2023/06/06 11:14:07;;;;;;;76.68;53.90;;;20.70;63.70;;;;;;4935568;28;89933;-72
2023/06/06 11:16:43;;;;;;;75.78;53.88;;;20.80;63.90;;;;;;4956872;28;89439;-73
2023/06/06 11:19:21;;;;;;;75.80;53.97;;;20.80;63.80;;;;;;4960717;28;89622;-72
2023/06/06 11:21:58;;;;;;;76.43;53.83;;;20.80;63.80;;;;;;4956300;28;88767;-72
2023/06/06 11:24:32;;;;;;;75.20;53.40;;;20.90;64.40;;;;;;4957307;28;89449;-72
2023/06/06 11:26:58;;;;;;;76.82;53.72;;;20.90;63.60;;;;;;4954889;28;89761;-72
2023/06/06 11:29:25;;;;;;;77.07;53.85;;;20.90;63.90;;;;;;4955026;28;90053;-72
2023/06/06 11:31:51;;;;;;;75.03;53.85;;;21.00;63.40;;;;;;4958525;28;89471;-72
2023/06/06 11:34:17;;;;;;;75.10;53.78;;;21.00;63.80;;;;;;4958720;28;90416;-73
2023/06/06 11:36:44;;;;;;;74.72;53.45;;;21.00;63.10;;;;;;4964909;28;89462;-72
2023/06/06 11:39:11;;;;;;;75.68;53.92;;;21.00;63.00;;;;;;4959861;28;89599;-70
2023/06/06 11:41:45;;;;;;;77.15;53.97;;;21.10;63.00;;;;;;4960125;28;89697;-70
2023/06/06 11:44:11;;;;;;;75.57;53.58;;;21.10;62.80;;;;;;4956356;28;89523;-74
2023/06/06 11:47:08;;;;;;;76.93;54.05;;;21.10;62.90;;;;;;4957980;28;90855;-73
2023/06/06 11:49:44;;;;;;;75.18;53.30;;;21.20;62.50;;;;;;4953946;28;89128;-72
2023/06/06 11:52:10;;;;;;;75.70;53.63;;;21.20;62.90;;;;;;4957369;28;89987;-71
2023/06/06 11:54:37;;;;;;;75.93;53.58;;;21.30;62.50;;;;;;4958574;28;90559;-71
2023/06/06 11:57:04;;;;;;;76.28;53.53;;;21.20;62.00;;;;;;4956338;28;89573;-72
2023/06/06 11:59:30;;;;;;;75.75;53.88;;;21.30;62.20;;;;;;4958321;28;89411;-73
2023/06/06 12:01:59;;;;;;;76.20;53.78;;;21.30;62.10;;;;;;4962782;28;89714;-73
2023/06/06 12:04:25;;;;;;;75.53;53.72;;;21.30;61.90;;;;;;4956118;28;90090;-73
2023/06/06 12:06:53;;;;;;;75.85;53.92;;;21.40;61.50;;;;;;4957749;28;89344;-72
2023/06/06 12:09:20;;;;;;;76.57;53.85;;;21.40;61.40;;;;;;4960014;28;89202;-72
2023/06/06 12:12:00;;;;;;;75.13;53.83;;;21.40;61.50;;;;;;4958766;28;89733;-73
2023/06/06 12:14:28;;;;;;;76.50;53.88;;;21.50;61.20;;;;;;4958127;28;89871;-71
2023/06/06 12:17:05;;;;;;;76.72;54.20;;;21.50;61.20;;;;;;4957849;28;89696;-72
2023/06/06 12:19:31;;;;;;;76.65;53.72;;;21.50;62.10;;;;;;4944279;28;90308;-73
2023/06/06 12:21:57;;;;;;;76.05;53.90;;;21.60;61.20;;;;;;4942739;28;90076;-73
2023/06/06 12:24:27;;;;;;;77.07;54.17;;;21.60;60.60;;;;;;4955459;28;89660;-74
2023/06/06 12:26:56;;;;;;;76.60;54.13;;;21.60;61.00;;;;;;4955286;28;89352;-73
2023/06/06 12:29:33;;;;;;;76.82;54.03;;;21.60;60.60;;;;;;4956766;28;89543;-71
2023/06/06 12:32:29;;;;;;;80.82;54.13;;;21.70;60.10;;;;;;4960939;28;89286;-71